sensor_id;sensor_type;location;lat;lon;timestamp;temperature;humidity
6738;DHT22;3406;49.902;8.596;2023-07-29T00:01:55;19.60;99.90
6738;DHT22;3406;49.902;8.596;2023-07-29T00:04:21;19.60;99.90
6738;DHT22;3406;49.902;8.596;2023-07-29T00:06:48;19.70;99.90
6738;DHT22;3406;49.902;8.596;2023-07-29T00:09:15;19.70;99.90
6738;DHT22;3406;49.902;8.596;2023-07-29T00:11:43;19.70;99.90
6738;DHT22;3406;49.902;8.596;2023-07-29T00:14:09;19.70;99.90
6738;DHT22;3406;49.902;8.596;2023-07-29T00:16:36;19.70;99.90
6738;DHT22;3406;49.902;8.596;2023-07-29T00:19:03;19.70;99.90
6738;DHT22;3406;49.902;8.596;2023-07-29T00:21:30;19.80;99.90
6738;DHT22;3406;49.902;8.596;2023-07-29T00:23:56;19.80;99.90
6738;DHT22;3406;49.902;8.596;2023-07-29T00:26:23;19.80;99.90
6738;DHT22;3406;49.902;8.596;2023-07-29T00:28:52;19.80;99.90
6738;DHT22;3406;49.902;8.596;2023-07-29T00:31:19;19.80;99.90
6738;DHT22;3406;49.902;8.596;2023-07-29T00:33:46;19.80;99.90
6738;DHT22;3406;49.902;8.596;2023-07-29T00:36:12;19.80;99.90
6738;DHT22;3406;49.902;8.596;2023-07-29T00:38:39;19.80;99.90
6738;DHT22;3406;49.902;8.596;2023-07-29T00:41:06;19.90;99.90
6738;DHT22;3406;49.902;8.596;2023-07-29T00:43:33;19.90;99.90
6738;DHT22;3406;49.902;8.596;2023-07-29T00:46:01;19.90;99.90
6738;DHT22;3406;49.902;8.596;2023-07-29T00:48:27;19.90;99.90
6738;DHT22;3406;49.902;8.596;2023-07-29T00:50:54;19.90;99.90
6738;DHT22;3406;49.902;8.596;2023-07-29T00:53:21;19.90;99.90
6738;DHT22;3406;49.902;8.596;2023-07-29T00:55:48;19.90;99.90
6738;DHT22;3406;49.902;8.596;2023-07-29T00:58:15;19.90;99.90
6738;DHT22;3406;49.902;8.596;2023-07-29T01:00:42;19.90;99.90
6738;DHT22;3406;49.902;8.596;2023-07-29T01:03:10;19.90;99.90
6738;DHT22;3406;49.902;8.596;2023-07-29T01:05:41;19.90;99.90
6738;DHT22;3406;49.902;8.596;2023-07-29T01:08:16;19.90;99.90
6738;DHT22;3406;49.902;8.596;2023-07-29T01:10:54;20.00;99.90
6738;DHT22;3406;49.902;8.596;2023-07-29T01:13:31;20.00;99.90
6738;DHT22;3406;49.902;8.596;2023-07-29T01:16:01;20.00;99.90
6738;DHT22;3406;49.902;8.596;2023-07-29T01:18:31;20.10;99.90
6738;DHT22;3406;49.902;8.596;2023-07-29T01:20:59;20.10;99.90
6738;DHT22;3406;49.902;8.596;2023-07-29T01:23:29;20.10;99.90
6738;DHT22;3406;49.902;8.596;2023-07-29T01:25:55;20.10;99.90
6738;DHT22;3406;49.902;8.596;2023-07-29T01:28:22;20.10;99.90
6738;DHT22;3406;49.902;8.596;2023-07-29T01:30:52;20.20;99.90
6738;DHT22;3406;49.902;8.596;2023-07-29T01:33:26;20.20;99.90
6738;DHT22;3406;49.902;8.596;2023-07-29T01:35:58;20.20;99.90
6738;DHT22;3406;49.902;8.596;2023-07-29T01:38:30;20.20;99.90
6738;DHT22;3406;49.902;8.596;2023-07-29T01:41:01;20.20;99.90
6738;DHT22;3406;49.902;8.596;2023-07-29T01:43:28;20.20;99.90
6738;DHT22;3406;49.902;8.596;2023-07-29T01:45:55;20.20;99.90
6738;DHT22;3406;49.902;8.596;2023-07-29T01:48:23;20.20;99.90
6738;DHT22;3406;49.902;8.596;2023-07-29T01:50:50;20.20;99.90
6738;DHT22;3406;49.902;8.596;2023-07-29T01:53:16;20.20;99.90
6738;DHT22;3406;49.902;8.596;2023-07-29T01:55:44;20.20;99.90
6738;DHT22;3406;49.902;8.596;2023-07-29T01:58:11;20.20;99.90
6738;DHT22;3406;49.902;8.596;2023-07-29T02:00:38;20.20;99.90
6738;DHT22;3406;49.902;8.596;2023-07-29T02:03:05;20.20;99.90
6738;DHT22;3406;49.902;8.596;2023-07-29T02:05:31;20.30;99.90
6738;DHT22;3406;49.902;8.596;2023-07-29T02:07:58;20.20;99.90
6738;DHT22;3406;49.902;8.596;2023-07-29T02:10:25;20.20;99.90
6738;DHT22;3406;49.902;8.596;2023-07-29T02:12:53;20.20;99.90
6738;DHT22;3406;49.902;8.596;2023-07-29T02:15:19;20.20;99.90
6738;DHT22;3406;49.902;8.596;2023-07-29T02:17:46;20.20;99.90
6738;DHT22;3406;49.902;8.596;2023-07-29T02:20:13;20.20;99.90
6738;DHT22;3406;49.902;8.596;2023-07-29T02:22:40;20.20;99.90
6738;DHT22;3406;49.902;8.596;2023-07-29T02:25:07;20.20;99.90
6738;DHT22;3406;49.902;8.596;2023-07-29T02:27:34;20.10;99.90
6738;DHT22;3406;49.902;8.596;2023-07-29T02:30:02;20.10;99.90
6738;DHT22;3406;49.902;8.596;2023-07-29T02:32:28;20.00;99.90
6738;DHT22;3406;49.902;8.596;2023-07-29T02:34:55;20.00;99.90
6738;DHT22;3406;49.902;8.596;2023-07-29T02:37:22;20.00;99.90
6738;DHT22;3406;49.902;8.596;2023-07-29T02:39:48;20.00;99.90
6738;DHT22;3406;49.902;8.596;2023-07-29T02:42:15;19.90;99.90
6738;DHT22;3406;49.902;8.596;2023-07-29T02:44:42;19.90;99.90
6738;DHT22;3406;49.902;8.596;2023-07-29T02:47:10;19.90;99.90
6738;DHT22;3406;49.902;8.596;2023-07-29T02:49:36;19.90;99.90
6738;DHT22;3406;49.902;8.596;2023-07-29T02:52:04;19.80;99.90
6738;DHT22;3406;49.902;8.596;2023-07-29T02:54:30;19.80;99.90
6738;DHT22;3406;49.902;8.596;2023-07-29T02:56:57;19.80;99.90
6738;DHT22;3406;49.902;8.596;2023-07-29T02:59:24;19.80;99.90
6738;DHT22;3406;49.902;8.596;2023-07-29T03:01:51;19.80;99.90
6738;DHT22;3406;49.902;8.596;2023-07-29T03:04:20;19.80;99.90
6738;DHT22;3406;49.902;8.596;2023-07-29T03:06:46;19.70;99.90
6738;DHT22;3406;49.902;8.596;2023-07-29T03:09:13;19.70;99.90
6738;DHT22;3406;49.902;8.596;2023-07-29T03:11:40;19.70;99.90
6738;DHT22;3406;49.902;8.596;2023-07-29T03:14:07;19.70;99.90
6738;DHT22;3406;49.902;8.596;2023-07-29T03:16:33;19.70;99.90
6738;DHT22;3406;49.902;8.596;2023-07-29T03:19:00;19.70;99.90
6738;DHT22;3406;49.902;8.596;2023-07-29T03:21:28;19.70;99.90
6738;DHT22;3406;49.902;8.596;2023-07-29T03:23:55;19.70;99.90
6738;DHT22;3406;49.902;8.596;2023-07-29T03:26:21;19.70;99.90
6738;DHT22;3406;49.902;8.596;2023-07-29T03:28:48;19.70;99.90
6738;DHT22;3406;49.902;8.596;2023-07-29T03:31:15;19.60;99.90
6738;DHT22;3406;49.902;8.596;2023-07-29T03:33:41;19.60;99.90
6738;DHT22;3406;49.902;8.596;2023-07-29T03:36:08;19.60;99.90
6738;DHT22;3406;49.902;8.596;2023-07-29T03:38:36;19.50;99.90
6738;DHT22;3406;49.902;8.596;2023-07-29T03:41:05;19.50;99.90
6738;DHT22;3406;49.902;8.596;2023-07-29T03:43:32;19.50;99.90
6738;DHT22;3406;49.902;8.596;2023-07-29T03:45:59;19.50;99.90
6738;DHT22;3406;49.902;8.596;2023-07-29T03:48:26;19.40;99.90
6738;DHT22;3406;49.902;8.596;2023-07-29T03:50:53;19.40;99.90
6738;DHT22;3406;49.902;8.596;2023-07-29T03:53:20;19.40;99.90
6738;DHT22;3406;49.902;8.596;2023-07-29T03:55:48;19.40;99.90
6738;DHT22;3406;49.902;8.596;2023-07-29T03:58:15;19.40;99.90
6738;DHT22;3406;49.902;8.596;2023-07-29T04:00:42;19.30;99.90
6738;DHT22;3406;49.902;8.596;2023-07-29T04:03:08;19.40;99.90
6738;DHT22;3406;49.902;8.596;2023-07-29T04:05:35;19.30;99.90
6738;DHT22;3406;49.902;8.596;2023-07-29T04:08:02;19.30;99.90
6738;DHT22;3406;49.902;8.596;2023-07-29T04:10:29;19.30;99.90
6738;DHT22;3406;49.902;8.596;2023-07-29T04:12:58;19.30;99.90
6738;DHT22;3406;49.902;8.596;2023-07-29T04:15:25;19.30;99.90
6738;DHT22;3406;49.902;8.596;2023-07-29T04:17:52;19.30;99.90
6738;DHT22;3406;49.902;8.596;2023-07-29T04:20:18;19.30;99.90
6738;DHT22;3406;49.902;8.596;2023-07-29T04:22:45;19.30;99.90
6738;DHT22;3406;49.902;8.596;2023-07-29T04:25:11;19.40;99.90
6738;DHT22;3406;49.902;8.596;2023-07-29T04:27:38;19.40;99.90
6738;DHT22;3406;49.902;8.596;2023-07-29T04:30:08;19.40;99.90
6738;DHT22;3406;49.902;8.596;2023-07-29T04:32:34;19.40;99.90
6738;DHT22;3406;49.902;8.596;2023-07-29T04:35:01;19.40;99.90
6738;DHT22;3406;49.902;8.596;2023-07-29T04:37:28;19.40;99.90
6738;DHT22;3406;49.902;8.596;2023-07-29T04:39:55;19.40;99.90
6738;DHT22;3406;49.902;8.596;2023-07-29T04:42:21;19.40;99.90
6738;DHT22;3406;49.902;8.596;2023-07-29T04:44:48;19.50;99.90
6738;DHT22;3406;49.902;8.596;2023-07-29T04:47:16;19.50;99.90
6738;DHT22;3406;49.902;8.596;2023-07-29T04:49:43;19.50;99.90
6738;DHT22;3406;49.902;8.596;2023-07-29T04:52:09;19.60;99.90
6738;DHT22;3406;49.902;8.596;2023-07-29T04:54:36;19.60;99.90
6738;DHT22;3406;49.902;8.596;2023-07-29T04:57:03;19.60;99.90
6738;DHT22;3406;49.902;8.596;2023-07-29T04:59:29;19.60;99.90
6738;DHT22;3406;49.902;8.596;2023-07-29T05:01:56;19.60;99.90
6738;DHT22;3406;49.902;8.596;2023-07-29T05:04:24;19.70;99.90
6738;DHT22;3406;49.902;8.596;2023-07-29T05:06:51;19.70;99.90
6738;DHT22;3406;49.902;8.596;2023-07-29T05:09:18;19.70;99.90
6738;DHT22;3406;49.902;8.596;2023-07-29T05:11:46;19.70;99.90
6738;DHT22;3406;49.902;8.596;2023-07-29T05:14:15;19.70;99.90
6738;DHT22;3406;49.902;8.596;2023-07-29T05:16:42;19.80;99.90
6738;DHT22;3406;49.902;8.596;2023-07-29T05:19:09;19.80;99.90
6738;DHT22;3406;49.902;8.596;2023-07-29T05:21:37;19.80;99.90
6738;DHT22;3406;49.902;8.596;2023-07-29T05:24:04;19.80;99.90
6738;DHT22;3406;49.902;8.596;2023-07-29T05:26:31;19.90;99.90
6738;DHT22;3406;49.902;8.596;2023-07-29T05:28:57;19.90;99.90
6738;DHT22;3406;49.902;8.596;2023-07-29T05:31:24;20.00;99.90
6738;DHT22;3406;49.902;8.596;2023-07-29T05:33:51;20.00;99.90
6738;DHT22;3406;49.902;8.596;2023-07-29T05:36:18;20.10;99.90
6738;DHT22;3406;49.902;8.596;2023-07-29T05:38:46;20.10;99.90
6738;DHT22;3406;49.902;8.596;2023-07-29T05:41:12;20.10;99.90
6738;DHT22;3406;49.902;8.596;2023-07-29T05:43:39;20.10;99.90
6738;DHT22;3406;49.902;8.596;2023-07-29T05:46:08;20.10;99.90
6738;DHT22;3406;49.902;8.596;2023-07-29T05:48:34;20.20;99.90
6738;DHT22;3406;49.902;8.596;2023-07-29T05:51:01;20.20;99.90
6738;DHT22;3406;49.902;8.596;2023-07-29T05:53:28;20.20;99.90
6738;DHT22;3406;49.902;8.596;2023-07-29T05:55:56;20.20;99.90
6738;DHT22;3406;49.902;8.596;2023-07-29T05:58:22;20.20;99.90
6738;DHT22;3406;49.902;8.596;2023-07-29T06:00:49;20.20;99.90
6738;DHT22;3406;49.902;8.596;2023-07-29T06:03:16;20.20;99.90
6738;DHT22;3406;49.902;8.596;2023-07-29T06:05:42;20.30;99.90
6738;DHT22;3406;49.902;8.596;2023-07-29T06:08:09;20.30;99.90
6738;DHT22;3406;49.902;8.596;2023-07-29T06:10:35;20.30;99.90
6738;DHT22;3406;49.902;8.596;2023-07-29T06:13:03;20.30;99.90
6738;DHT22;3406;49.902;8.596;2023-07-29T06:15:31;20.30;99.90
6738;DHT22;3406;49.902;8.596;2023-07-29T06:17:58;20.30;99.90
6738;DHT22;3406;49.902;8.596;2023-07-29T06:20:24;20.30;99.90
6738;DHT22;3406;49.902;8.596;2023-07-29T06:22:51;20.20;99.90
6738;DHT22;3406;49.902;8.596;2023-07-29T06:25:18;20.30;99.90
6738;DHT22;3406;49.902;8.596;2023-07-29T06:27:44;20.30;99.90
6738;DHT22;3406;49.902;8.596;2023-07-29T06:30:12;20.30;99.90
6738;DHT22;3406;49.902;8.596;2023-07-29T06:32:39;20.30;99.90
6738;DHT22;3406;49.902;8.596;2023-07-29T06:35:06;20.40;99.90
6738;DHT22;3406;49.902;8.596;2023-07-29T06:37:33;20.40;99.90
6738;DHT22;3406;49.902;8.596;2023-07-29T06:40:00;20.30;99.90
6738;DHT22;3406;49.902;8.596;2023-07-29T06:42:26;20.40;99.90
6738;DHT22;3406;49.902;8.596;2023-07-29T06:44:53;20.40;99.90
6738;DHT22;3406;49.902;8.596;2023-07-29T06:47:21;20.40;99.90
6738;DHT22;3406;49.902;8.596;2023-07-29T06:49:47;20.30;99.90
6738;DHT22;3406;49.902;8.596;2023-07-29T06:52:14;20.40;99.90
6738;DHT22;3406;49.902;8.596;2023-07-29T06:54:41;20.30;99.90
6738;DHT22;3406;49.902;8.596;2023-07-29T06:57:07;20.30;99.90
6738;DHT22;3406;49.902;8.596;2023-07-29T06:59:34;20.30;99.90
6738;DHT22;3406;49.902;8.596;2023-07-29T07:02:01;20.30;99.90
6738;DHT22;3406;49.902;8.596;2023-07-29T07:04:29;20.20;99.90
6738;DHT22;3406;49.902;8.596;2023-07-29T07:06:56;20.20;99.90
6738;DHT22;3406;49.902;8.596;2023-07-29T07:09:22;20.10;99.90
6738;DHT22;3406;49.902;8.596;2023-07-29T07:11:49;20.10;99.90
6738;DHT22;3406;49.902;8.596;2023-07-29T07:14:15;20.10;99.90
6738;DHT22;3406;49.902;8.596;2023-07-29T07:16:42;20.10;99.90
6738;DHT22;3406;49.902;8.596;2023-07-29T07:19:09;20.00;99.90
6738;DHT22;3406;49.902;8.596;2023-07-29T07:21:37;20.00;99.90
6738;DHT22;3406;49.902;8.596;2023-07-29T07:24:03;20.00;99.90
6738;DHT22;3406;49.902;8.596;2023-07-29T07:26:30;20.00;99.90
6738;DHT22;3406;49.902;8.596;2023-07-29T07:28:57;20.00;99.90
6738;DHT22;3406;49.902;8.596;2023-07-29T07:31:23;20.00;99.90
6738;DHT22;3406;49.902;8.596;2023-07-29T07:33:50;20.00;99.90
6738;DHT22;3406;49.902;8.596;2023-07-29T07:36:16;20.00;99.90
6738;DHT22;3406;49.902;8.596;2023-07-29T07:38:45;20.00;99.90
6738;DHT22;3406;49.902;8.596;2023-07-29T07:41:11;20.00;99.90
6738;DHT22;3406;49.902;8.596;2023-07-29T07:43:38;20.00;99.90
6738;DHT22;3406;49.902;8.596;2023-07-29T07:46:05;20.00;99.90
6738;DHT22;3406;49.902;8.596;2023-07-29T07:48:31;20.00;99.90
6738;DHT22;3406;49.902;8.596;2023-07-29T07:50:58;20.00;99.90
6738;DHT22;3406;49.902;8.596;2023-07-29T07:53:25;20.00;99.90
6738;DHT22;3406;49.902;8.596;2023-07-29T07:55:53;20.10;99.90
6738;DHT22;3406;49.902;8.596;2023-07-29T07:58:20;20.10;99.90
6738;DHT22;3406;49.902;8.596;2023-07-29T08:00:46;20.20;99.90
6738;DHT22;3406;49.902;8.596;2023-07-29T08:03:13;20.20;99.90
6738;DHT22;3406;49.902;8.596;2023-07-29T08:05:40;20.20;99.90
6738;DHT22;3406;49.902;8.596;2023-07-29T08:08:06;20.30;99.90
6738;DHT22;3406;49.902;8.596;2023-07-29T08:10:33;20.30;99.90
6738;DHT22;3406;49.902;8.596;2023-07-29T08:13:01;20.30;99.90
6738;DHT22;3406;49.902;8.596;2023-07-29T08:15:27;20.40;99.90
6738;DHT22;3406;49.902;8.596;2023-07-29T08:17:54;20.40;99.90
6738;DHT22;3406;49.902;8.596;2023-07-29T08:20:21;20.50;99.90
6738;DHT22;3406;49.902;8.596;2023-07-29T08:22:47;20.60;99.90
6738;DHT22;3406;49.902;8.596;2023-07-29T08:25:14;20.60;99.90
6738;DHT22;3406;49.902;8.596;2023-07-29T08:27:41;20.80;99.90
6738;DHT22;3406;49.902;8.596;2023-07-29T08:30:09;21.10;99.90
6738;DHT22;3406;49.902;8.596;2023-07-29T08:32:36;21.40;99.90
6738;DHT22;3406;49.902;8.596;2023-07-29T08:35:03;21.60;99.90
6738;DHT22;3406;49.902;8.596;2023-07-29T08:37:30;21.70;99.90
6738;DHT22;3406;49.902;8.596;2023-07-29T08:39:56;21.70;99.90
6738;DHT22;3406;49.902;8.596;2023-07-29T08:42:28;21.80;99.90
6738;DHT22;3406;49.902;8.596;2023-07-29T08:44:56;21.90;99.90
6738;DHT22;3406;49.902;8.596;2023-07-29T08:47:24;22.00;99.90
6738;DHT22;3406;49.902;8.596;2023-07-29T08:49:52;22.20;99.90
6738;DHT22;3406;49.902;8.596;2023-07-29T08:52:20;22.20;99.90
6738;DHT22;3406;49.902;8.596;2023-07-29T08:54:47;22.20;99.90
6738;DHT22;3406;49.902;8.596;2023-07-29T08:57:14;22.20;99.90
6738;DHT22;3406;49.902;8.596;2023-07-29T08:59:41;22.20;99.90
6738;DHT22;3406;49.902;8.596;2023-07-29T09:02:08;22.20;99.90
6738;DHT22;3406;49.902;8.596;2023-07-29T09:04:36;22.20;99.90
6738;DHT22;3406;49.902;8.596;2023-07-29T09:07:03;22.30;99.90
6738;DHT22;3406;49.902;8.596;2023-07-29T09:09:31;22.50;99.90
6738;DHT22;3406;49.902;8.596;2023-07-29T09:11:58;22.70;99.90
6738;DHT22;3406;49.902;8.596;2023-07-29T09:14:25;22.80;99.90
6738;DHT22;3406;49.902;8.596;2023-07-29T09:16:51;22.80;99.90
6738;DHT22;3406;49.902;8.596;2023-07-29T09:19:18;22.80;99.90
6738;DHT22;3406;49.902;8.596;2023-07-29T09:21:47;22.90;99.90
6738;DHT22;3406;49.902;8.596;2023-07-29T09:24:16;22.90;99.90
6738;DHT22;3406;49.902;8.596;2023-07-29T09:26:48;23.00;99.90
6738;DHT22;3406;49.902;8.596;2023-07-29T09:29:15;22.90;99.90
6738;DHT22;3406;49.902;8.596;2023-07-29T09:31:42;22.90;99.90
6738;DHT22;3406;49.902;8.596;2023-07-29T09:34:08;22.80;99.90
6738;DHT22;3406;49.902;8.596;2023-07-29T09:36:35;22.80;99.90
6738;DHT22;3406;49.902;8.596;2023-07-29T09:39:03;22.80;99.90
6738;DHT22;3406;49.902;8.596;2023-07-29T09:41:30;22.80;99.90
6738;DHT22;3406;49.902;8.596;2023-07-29T09:43:58;22.90;99.90
6738;DHT22;3406;49.902;8.596;2023-07-29T09:46:25;23.00;99.90
6738;DHT22;3406;49.902;8.596;2023-07-29T09:48:58;23.10;99.90
6738;DHT22;3406;49.902;8.596;2023-07-29T09:51:25;23.10;99.90
6738;DHT22;3406;49.902;8.596;2023-07-29T09:53:51;23.20;99.90
6738;DHT22;3406;49.902;8.596;2023-07-29T09:56:25;23.20;99.40
6738;DHT22;3406;49.902;8.596;2023-07-29T09:58:52;23.20;99.00
6738;DHT22;3406;49.902;8.596;2023-07-29T10:01:19;23.40;98.60
6738;DHT22;3406;49.902;8.596;2023-07-29T10:03:46;23.50;98.40
6738;DHT22;3406;49.902;8.596;2023-07-29T10:06:14;23.60;97.60
6738;DHT22;3406;49.902;8.596;2023-07-29T10:08:42;23.70;97.00
6738;DHT22;3406;49.902;8.596;2023-07-29T10:11:10;23.70;96.20
6738;DHT22;3406;49.902;8.596;2023-07-29T10:13:38;23.70;95.80
6738;DHT22;3406;49.902;8.596;2023-07-29T10:16:05;23.80;95.70
6738;DHT22;3406;49.902;8.596;2023-07-29T10:18:33;23.80;95.20
6738;DHT22;3406;49.902;8.596;2023-07-29T10:21:01;23.90;95.10
6738;DHT22;3406;49.902;8.596;2023-07-29T10:23:32;24.00;94.40
6738;DHT22;3406;49.902;8.596;2023-07-29T10:26:10;24.20;94.40
6738;DHT22;3406;49.902;8.596;2023-07-29T10:28:41;24.40;94.10
6738;DHT22;3406;49.902;8.596;2023-07-29T10:31:12;24.50;94.10
6738;DHT22;3406;49.902;8.596;2023-07-29T10:33:39;24.80;94.00
6738;DHT22;3406;49.902;8.596;2023-07-29T10:36:06;25.10;93.80
6738;DHT22;3406;49.902;8.596;2023-07-29T10:38:34;25.30;92.80
6738;DHT22;3406;49.902;8.596;2023-07-29T10:41:01;25.30;92.30
6738;DHT22;3406;49.902;8.596;2023-07-29T10:43:33;25.10;92.20
6738;DHT22;3406;49.902;8.596;2023-07-29T10:46:15;24.90;92.10
6738;DHT22;3406;49.902;8.596;2023-07-29T10:48:44;24.60;92.10
6738;DHT22;3406;49.902;8.596;2023-07-29T10:51:24;24.40;92.30
6738;DHT22;3406;49.902;8.596;2023-07-29T10:53:53;24.20;92.70
6738;DHT22;3406;49.902;8.596;2023-07-29T10:56:26;24.10;92.90
6738;DHT22;3406;49.902;8.596;2023-07-29T10:58:55;24.00;93.00
6738;DHT22;3406;49.902;8.596;2023-07-29T11:01:28;24.00;93.10
6738;DHT22;3406;49.902;8.596;2023-07-29T11:04:23;24.10;93.30
6738;DHT22;3406;49.902;8.596;2023-07-29T11:09:52;24.60;93.10
6738;DHT22;3406;49.902;8.596;2023-07-29T11:12:39;25.00;92.50
6738;DHT22;3406;49.902;8.596;2023-07-29T11:15:18;25.30;91.80
6738;DHT22;3406;49.902;8.596;2023-07-29T11:17:48;25.60;91.10
6738;DHT22;3406;49.902;8.596;2023-07-29T11:20:16;25.70;90.10
6738;DHT22;3406;49.902;8.596;2023-07-29T11:22:44;25.70;89.00
6738;DHT22;3406;49.902;8.596;2023-07-29T11:25:13;25.80;87.40
6738;DHT22;3406;49.902;8.596;2023-07-29T11:27:40;25.90;85.30
6738;DHT22;3406;49.902;8.596;2023-07-29T11:30:09;26.10;83.50
6738;DHT22;3406;49.902;8.596;2023-07-29T11:32:38;26.40;82.30
6738;DHT22;3406;49.902;8.596;2023-07-29T11:35:08;26.60;80.60
6738;DHT22;3406;49.902;8.596;2023-07-29T11:37:36;26.80;78.00
6738;DHT22;3406;49.902;8.596;2023-07-29T11:40:03;26.80;76.80
6738;DHT22;3406;49.902;8.596;2023-07-29T11:42:33;26.90;74.10
6738;DHT22;3406;49.902;8.596;2023-07-29T11:45:00;27.00;70.40
6738;DHT22;3406;49.902;8.596;2023-07-29T11:47:27;27.10;67.00
6738;DHT22;3406;49.902;8.596;2023-07-29T11:49:54;27.20;63.50
6738;DHT22;3406;49.902;8.596;2023-07-29T11:52:22;27.10;61.70
6738;DHT22;3406;49.902;8.596;2023-07-29T11:54:49;27.10;60.90
6738;DHT22;3406;49.902;8.596;2023-07-29T11:57:16;27.00;60.90
6738;DHT22;3406;49.902;8.596;2023-07-29T11:59:44;26.90;60.10
6738;DHT22;3406;49.902;8.596;2023-07-29T12:02:13;26.80;60.00
6738;DHT22;3406;49.902;8.596;2023-07-29T12:04:41;26.90;60.40
6738;DHT22;3406;49.902;8.596;2023-07-29T12:07:09;27.00;60.40
6738;DHT22;3406;49.902;8.596;2023-07-29T12:09:37;27.00;60.60
6738;DHT22;3406;49.902;8.596;2023-07-29T12:12:05;26.90;60.40
6738;DHT22;3406;49.902;8.596;2023-07-29T12:14:33;26.90;60.00
6738;DHT22;3406;49.902;8.596;2023-07-29T12:17:00;26.80;59.50
6738;DHT22;3406;49.902;8.596;2023-07-29T12:19:32;26.70;58.80
6738;DHT22;3406;49.902;8.596;2023-07-29T12:21:59;26.80;57.80
6738;DHT22;3406;49.902;8.596;2023-07-29T12:24:26;26.90;57.90
6738;DHT22;3406;49.902;8.596;2023-07-29T12:26:54;27.00;56.90
6738;DHT22;3406;49.902;8.596;2023-07-29T12:29:21;27.20;56.80
6738;DHT22;3406;49.902;8.596;2023-07-29T12:31:48;27.40;56.70
6738;DHT22;3406;49.902;8.596;2023-07-29T12:34:18;27.40;55.70
6738;DHT22;3406;49.902;8.596;2023-07-29T12:36:47;27.50;55.50
6738;DHT22;3406;49.902;8.596;2023-07-29T12:39:18;27.60;55.10
6738;DHT22;3406;49.902;8.596;2023-07-29T12:41:45;27.50;54.60
6738;DHT22;3406;49.902;8.596;2023-07-29T12:44:13;27.50;54.80
6738;DHT22;3406;49.902;8.596;2023-07-29T12:46:40;27.60;54.20
6738;DHT22;3406;49.902;8.596;2023-07-29T12:49:07;27.50;53.80
6738;DHT22;3406;49.902;8.596;2023-07-29T12:51:33;27.30;53.70
6738;DHT22;3406;49.902;8.596;2023-07-29T12:54:01;27.20;53.50
6738;DHT22;3406;49.902;8.596;2023-07-29T12:56:28;27.20;52.90
6738;DHT22;3406;49.902;8.596;2023-07-29T12:58:55;27.30;53.00
6738;DHT22;3406;49.902;8.596;2023-07-29T13:01:23;27.40;52.90
6738;DHT22;3406;49.902;8.596;2023-07-29T13:03:50;27.50;52.80
6738;DHT22;3406;49.902;8.596;2023-07-29T13:06:16;27.60;52.40
6738;DHT22;3406;49.902;8.596;2023-07-29T13:08:44;27.70;51.80
6738;DHT22;3406;49.902;8.596;2023-07-29T13:11:11;27.70;50.80
6738;DHT22;3406;49.902;8.596;2023-07-29T13:13:38;27.70;50.40
6738;DHT22;3406;49.902;8.596;2023-07-29T13:16:04;27.80;50.80
6738;DHT22;3406;49.902;8.596;2023-07-29T13:18:33;27.90;50.60
6738;DHT22;3406;49.902;8.596;2023-07-29T13:21:00;27.90;50.30
6738;DHT22;3406;49.902;8.596;2023-07-29T13:23:27;27.90;50.10
6738;DHT22;3406;49.902;8.596;2023-07-29T13:25:55;28.00;49.90
6738;DHT22;3406;49.902;8.596;2023-07-29T13:28:21;28.00;49.40
6738;DHT22;3406;49.902;8.596;2023-07-29T13:30:48;28.00;49.20
6738;DHT22;3406;49.902;8.596;2023-07-29T13:33:15;28.00;49.00
6738;DHT22;3406;49.902;8.596;2023-07-29T13:35:43;28.10;49.00
6738;DHT22;3406;49.902;8.596;2023-07-29T13:38:10;28.10;48.40
6738;DHT22;3406;49.902;8.596;2023-07-29T13:40:37;28.10;48.60
6738;DHT22;3406;49.902;8.596;2023-07-29T13:43:04;28.10;48.40
6738;DHT22;3406;49.902;8.596;2023-07-29T13:45:30;28.20;48.30
6738;DHT22;3406;49.902;8.596;2023-07-29T13:47:57;28.30;48.00
6738;DHT22;3406;49.902;8.596;2023-07-29T13:50:24;28.30;47.50
6738;DHT22;3406;49.902;8.596;2023-07-29T13:52:52;28.30;47.80
6738;DHT22;3406;49.902;8.596;2023-07-29T13:55:18;28.50;48.20
6738;DHT22;3406;49.902;8.596;2023-07-29T13:57:45;28.60;48.10
6738;DHT22;3406;49.902;8.596;2023-07-29T14:00:12;28.70;47.80
6738;DHT22;3406;49.902;8.596;2023-07-29T14:02:39;28.70;47.80
6738;DHT22;3406;49.902;8.596;2023-07-29T14:05:06;28.80;47.70
6738;DHT22;3406;49.902;8.596;2023-07-29T14:07:33;28.80;47.20
6738;DHT22;3406;49.902;8.596;2023-07-29T14:10:01;28.60;47.10
6738;DHT22;3406;49.902;8.596;2023-07-29T14:12:28;28.50;47.10
6738;DHT22;3406;49.902;8.596;2023-07-29T14:14:54;28.50;46.90
6738;DHT22;3406;49.902;8.596;2023-07-29T14:17:21;28.40;47.00
6738;DHT22;3406;49.902;8.596;2023-07-29T14:19:47;28.40;47.00
6738;DHT22;3406;49.902;8.596;2023-07-29T14:22:14;28.30;47.10
6738;DHT22;3406;49.902;8.596;2023-07-29T14:24:41;28.40;47.60
6738;DHT22;3406;49.902;8.596;2023-07-29T14:27:09;28.40;47.60
6738;DHT22;3406;49.902;8.596;2023-07-29T14:29:35;28.40;47.50
6738;DHT22;3406;49.902;8.596;2023-07-29T14:32:02;28.40;48.00
6738;DHT22;3406;49.902;8.596;2023-07-29T14:34:29;28.40;47.60
6738;DHT22;3406;49.902;8.596;2023-07-29T14:36:56;28.40;48.00
6738;DHT22;3406;49.902;8.596;2023-07-29T14:39:22;28.40;48.60
6738;DHT22;3406;49.902;8.596;2023-07-29T14:41:49;28.50;47.90
6738;DHT22;3406;49.902;8.596;2023-07-29T14:44:17;28.60;47.80
6738;DHT22;3406;49.902;8.596;2023-07-29T14:46:44;28.70;48.00
6738;DHT22;3406;49.902;8.596;2023-07-29T14:49:10;28.60;47.90
6738;DHT22;3406;49.902;8.596;2023-07-29T14:51:37;28.40;48.00
6738;DHT22;3406;49.902;8.596;2023-07-29T14:54:04;28.20;48.40
6738;DHT22;3406;49.902;8.596;2023-07-29T14:56:31;28.20;48.60
6738;DHT22;3406;49.902;8.596;2023-07-29T14:58:57;28.30;48.50
6738;DHT22;3406;49.902;8.596;2023-07-29T15:01:25;28.30;48.40
6738;DHT22;3406;49.902;8.596;2023-07-29T15:03:52;28.50;48.20
6738;DHT22;3406;49.902;8.596;2023-07-29T15:06:19;28.50;48.30
6738;DHT22;3406;49.902;8.596;2023-07-29T15:08:45;28.60;48.60
6738;DHT22;3406;49.902;8.596;2023-07-29T15:11:12;28.50;48.60
6738;DHT22;3406;49.902;8.596;2023-07-29T15:13:39;28.50;48.80
6738;DHT22;3406;49.902;8.596;2023-07-29T15:16:05;28.40;49.00
6738;DHT22;3406;49.902;8.596;2023-07-29T15:18:33;28.40;48.70
6738;DHT22;3406;49.902;8.596;2023-07-29T15:21:00;28.30;48.60
6738;DHT22;3406;49.902;8.596;2023-07-29T15:23:27;28.30;48.90
6738;DHT22;3406;49.902;8.596;2023-07-29T15:25:54;28.30;48.80
6738;DHT22;3406;49.902;8.596;2023-07-29T15:28:21;28.40;49.00
6738;DHT22;3406;49.902;8.596;2023-07-29T15:30:47;28.60;49.00
6738;DHT22;3406;49.902;8.596;2023-07-29T15:33:14;28.70;48.80
6738;DHT22;3406;49.902;8.596;2023-07-29T15:36:08;28.70;48.80
6738;DHT22;3406;49.902;8.596;2023-07-29T15:38:35;28.60;48.70
6738;DHT22;3406;49.902;8.596;2023-07-29T15:41:02;28.40;48.80
6738;DHT22;3406;49.902;8.596;2023-07-29T15:43:28;28.10;49.20
6738;DHT22;3406;49.902;8.596;2023-07-29T15:45:55;28.00;49.60
6738;DHT22;3406;49.902;8.596;2023-07-29T15:48:23;27.80;50.00
6738;DHT22;3406;49.902;8.596;2023-07-29T15:50:50;27.70;50.40
6738;DHT22;3406;49.902;8.596;2023-07-29T15:53:18;27.50;50.70
6738;DHT22;3406;49.902;8.596;2023-07-29T15:55:44;27.60;51.10
6738;DHT22;3406;49.902;8.596;2023-07-29T15:58:11;27.80;51.20
6738;DHT22;3406;49.902;8.596;2023-07-29T16:00:37;28.10;51.10
6738;DHT22;3406;49.902;8.596;2023-07-29T16:03:04;28.20;50.90
6738;DHT22;3406;49.902;8.596;2023-07-29T16:05:31;28.10;50.90
6738;DHT22;3406;49.902;8.596;2023-07-29T16:07:57;27.90;50.90